Time;durP1;ratioP1;P1;durP2;ratioP2;P2;SDS_P1;SDS_P2;PMS_P1;PMS_P2;Temp;Humidity;BMP_temperature;BMP_pressure;BME280_temperature;BME280_humidity;BME280_pressure;Samples;Min_cycle;Max_cycle;Signal;HPM_P1;HPM_P2
2023/09/25 00:00:34;;;;;;;6.93;3.10;;;14.50;99.90;;;;;;4385632;28;658891;-70
2023/09/25 00:03:22;;;;;;;6.63;3.73;;;14.50;99.90;;;;;;4405555;28;659237;-70
2023/09/25 00:06:09;;;;;;;5.10;3.40;;;14.50;99.90;;;;;;4388622;28;659032;-70
2023/09/25 00:08:59;;;;;;;4.97;3.15;;;14.50;99.90;;;;;;4393989;28;658520;-70
2023/09/25 00:11:46;;;;;;;13.03;3.83;;;14.50;99.90;;;;;;4409640;28;658208;-70
2023/09/25 00:14:33;;;;;;;4.27;3.13;;;14.50;99.90;;;;;;4388492;28;659819;-70
2023/09/25 00:17:21;;;;;;;6.00;3.63;;;14.50;99.90;;;;;;4414077;28;659895;-70
2023/09/25 00:20:10;;;;;;;6.87;3.97;;;14.50;99.90;;;;;;4384910;28;659023;-70
2023/09/25 00:22:57;;;;;;;6.57;3.27;;;14.50;99.90;;;;;;4386821;28;658938;-70
2023/09/25 00:25:46;;;;;;;8.03;3.33;;;14.50;99.90;;;;;;4408145;28;658875;-70
2023/09/25 00:28:33;;;;;;;6.57;3.70;;;14.50;99.90;;;;;;4387111;28;658927;-70
2023/09/25 00:31:21;;;;;;;5.70;3.63;;;14.50;99.90;;;;;;4407447;28;659202;-70
2023/09/25 00:34:08;;;;;;;5.10;3.37;;;14.50;99.90;;;;;;4385026;28;658690;-70
2023/09/25 00:36:56;;;;;;;6.63;3.60;;;14.40;99.90;;;;;;4403793;28;659561;-70
2023/09/25 00:39:44;;;;;;;6.60;3.80;;;14.50;99.90;;;;;;4379039;28;659116;-70
2023/09/25 00:42:32;;;;;;;7.00;3.60;;;14.50;99.90;;;;;;4406410;28;658195;-70
2023/09/25 00:45:20;;;;;;;5.23;3.77;;;14.50;99.90;;;;;;4380711;28;658822;-70
2023/09/25 00:48:09;;;;;;;6.70;3.57;;;14.50;99.90;;;;;;4404232;28;658768;-70
2023/09/25 00:50:57;;;;;;;4.83;3.77;;;14.50;99.90;;;;;;4403755;28;659050;-70
2023/09/25 00:53:45;;;;;;;4.17;3.27;;;14.40;99.90;;;;;;4390317;28;660264;-70
2023/09/25 00:56:32;;;;;;;6.60;4.00;;;14.40;99.90;;;;;;4398772;28;659228;-70
2023/09/25 00:59:21;;;;;;;9.90;4.00;;;14.40;99.90;;;;;;4419258;28;659090;-71
2023/09/25 01:02:10;;;;;;;5.53;3.90;;;14.40;99.90;;;;;;4391713;28;658344;-70
2023/09/25 01:04:59;;;;;;;6.57;3.77;;;14.40;99.90;;;;;;4389914;28;658357;-70
2023/09/25 01:07:46;;;;;;;5.97;4.20;;;14.40;99.90;;;;;;4388231;28;659329;-70
2023/09/25 01:10:34;;;;;;;5.87;4.17;;;14.40;99.90;;;;;;4369636;28;659210;-70
2023/09/25 01:13:21;;;;;;;6.37;4.50;;;14.40;99.90;;;;;;4394245;28;659355;-70
2023/09/25 01:16:09;;;;;;;6.73;4.47;;;14.40;99.90;;;;;;4372935;28;659170;-70
2023/09/25 01:18:57;;;;;;;7.10;4.73;;;14.40;99.90;;;;;;4394691;28;659477;-70
2023/09/25 01:21:46;;;;;;;6.67;4.80;;;14.40;99.90;;;;;;4372173;28;659399;-70
2023/09/25 01:24:33;;;;;;;10.20;4.67;;;14.40;99.90;;;;;;4372800;28;658955;-70
2023/09/25 01:27:21;;;;;;;7.13;4.67;;;14.40;99.90;;;;;;4397934;28;660695;-70
2023/09/25 01:30:09;;;;;;;9.47;4.80;;;14.50;99.90;;;;;;4374736;28;658404;-70
2023/09/25 01:32:57;;;;;;;9.50;4.70;;;14.50;99.90;;;;;;4392944;28;658742;-70
2023/09/25 01:35:44;;;;;;;12.03;5.00;;;14.50;99.90;;;;;;4366728;28;659784;-70
2023/09/25 01:38:33;;;;;;;13.93;5.80;;;14.50;99.90;;;;;;4398878;28;659987;-70
2023/09/25 01:41:20;;;;;;;11.43;5.87;;;14.50;99.90;;;;;;4366406;28;661103;-70
2023/09/25 01:44:07;;;;;;;13.17;5.57;;;14.50;99.90;;;;;;4368064;28;660044;-70
2023/09/25 01:46:55;;;;;;;9.50;5.83;;;14.50;99.90;;;;;;4382348;28;660220;-70
2023/09/25 01:49:42;;;;;;;14.03;6.10;;;14.50;99.90;;;;;;4387796;28;658969;-70
2023/09/25 01:52:30;;;;;;;11.07;5.70;;;14.50;99.90;;;;;;4352210;28;660370;-70
2023/09/25 01:55:19;;;;;;;9.47;6.03;;;14.50;99.90;;;;;;4388530;28;661695;-70
2023/09/25 01:58:07;;;;;;;8.77;6.33;;;14.60;99.90;;;;;;4384259;28;658957;-70
2023/09/25 02:00:54;;;;;;;7.07;5.80;;;14.60;99.90;;;;;;4374698;28;659610;-70
2023/09/25 02:03:41;;;;;;;9.43;6.33;;;14.60;99.90;;;;;;4394204;28;658465;-70
2023/09/25 02:06:29;;;;;;;7.63;6.13;;;14.60;99.90;;;;;;4374592;28;658568;-70
2023/09/25 02:09:16;;;;;;;10.17;6.23;;;14.60;99.90;;;;;;4398509;28;659088;-70
2023/09/25 02:12:05;;;;;;;10.07;5.87;;;14.50;99.90;;;;;;4380486;28;660225;-70
2023/09/25 02:14:54;;;;;;;8.60;6.43;;;14.50;99.90;;;;;;4392269;28;659919;-70
2023/09/25 02:17:42;;;;;;;8.17;6.13;;;14.50;99.90;;;;;;4402162;28;658208;-71
2023/09/25 02:20:30;;;;;;;7.87;6.07;;;14.50;99.90;;;;;;4378012;28;658915;-70
2023/09/25 02:23:19;;;;;;;8.77;6.07;;;14.60;99.90;;;;;;4401689;28;658395;-71
2023/09/25 02:26:06;;;;;;;13.27;6.07;;;14.50;99.90;;;;;;4409701;28;658500;-71
2023/09/25 02:28:55;;;;;;;7.83;5.90;;;14.50;99.90;;;;;;4383734;28;659469;-70
2023/09/25 02:31:42;;;;;;;9.43;6.37;;;14.50;99.90;;;;;;4392095;28;658829;-71
2023/09/25 02:34:30;;;;;;;14.30;6.77;;;14.50;99.90;;;;;;4406147;28;658920;-70
2023/09/25 02:37:17;;;;;;;10.63;6.47;;;14.40;99.90;;;;;;4400355;28;659900;-71
2023/09/25 02:40:06;;;;;;;10.13;6.67;;;14.40;99.90;;;;;;4379088;28;660550;-71
2023/09/25 02:42:53;;;;;;;8.57;5.77;;;14.40;99.90;;;;;;4383659;28;659584;-70
2023/09/25 02:45:43;;;;;;;9.47;6.40;;;14.40;99.90;;;;;;4406664;28;658959;-70
2023/09/25 02:48:30;;;;;;;7.50;6.20;;;14.40;99.90;;;;;;4381244;28;659777;-70
2023/09/25 02:51:17;;;;;;;10.03;6.97;;;14.40;99.90;;;;;;4327867;28;658912;-71
2023/09/25 02:54:05;;;;;;;11.30;6.37;;;14.40;99.90;;;;;;4309635;28;659742;-70
2023/09/25 02:56:52;;;;;;;10.83;6.33;;;14.40;99.90;;;;;;4282920;28;659700;-70
2023/09/25 02:59:40;;;;;;;12.83;6.90;;;14.40;99.90;;;;;;4347170;28;660223;-70
2023/09/25 03:02:29;;;;;;;8.57;6.10;;;14.40;99.90;;;;;;4386503;28;660316;-70
2023/09/25 03:05:16;;;;;;;10.63;6.33;;;14.40;99.90;;;;;;4410220;28;659246;-70
2023/09/25 03:08:04;;;;;;;8.60;6.57;;;14.40;99.90;;;;;;4389415;28;661209;-70
2023/09/25 03:10:52;;;;;;;14.20;6.27;;;14.40;99.90;;;;;;4401391;28;658314;-70
2023/09/25 03:13:39;;;;;;;18.70;6.63;;;14.40;99.90;;;;;;4386941;28;659962;-70
2023/09/25 03:16:26;;;;;;;10.53;7.00;;;14.40;99.90;;;;;;4405185;28;659548;-70
2023/09/25 03:19:15;;;;;;;12.10;7.70;;;14.40;99.90;;;;;;4387712;28;660096;-70
2023/09/25 03:22:02;;;;;;;14.53;7.13;;;14.40;99.90;;;;;;4396425;28;659492;-70
2023/09/25 03:24:50;;;;;;;12.33;7.13;;;14.40;99.90;;;;;;4410392;28;659889;-70
2023/09/25 03:27:37;;;;;;;12.27;7.40;;;14.40;99.90;;;;;;4407647;28;659856;-70
2023/09/25 03:30:24;;;;;;;14.67;7.40;;;14.50;99.90;;;;;;4388499;28;660663;-70
2023/09/25 03:33:11;;;;;;;12.70;8.07;;;14.50;99.90;;;;;;4409584;28;659917;-70
2023/09/25 03:36:00;;;;;;;12.00;8.50;;;14.50;99.90;;;;;;4386830;28;660171;-70
2023/09/25 03:38:47;;;;;;;15.33;8.57;;;14.50;99.90;;;;;;4389960;28;659858;-70
2023/09/25 03:41:35;;;;;;;11.63;8.43;;;14.50;99.90;;;;;;4419253;28;659528;-70
2023/09/25 03:44:22;;;;;;;11.60;8.13;;;14.50;99.90;;;;;;4403729;28;660273;-70
2023/09/25 03:47:09;;;;;;;14.80;8.90;;;14.50;99.90;;;;;;4383689;28;660782;-71
2023/09/25 03:49:56;;;;;;;13.33;8.80;;;14.50;99.90;;;;;;4404193;28;659727;-70
2023/09/25 03:52:45;;;;;;;13.53;8.90;;;14.40;99.90;;;;;;4374552;28;660204;-70
2023/09/25 03:55:32;;;;;;;12.00;8.77;;;14.50;99.90;;;;;;4405408;28;659799;-70
2023/09/25 03:58:20;;;;;;;14.30;8.90;;;14.50;99.90;;;;;;4401729;28;660597;-70
2023/09/25 04:01:07;;;;;;;16.90;9.70;;;14.40;99.90;;;;;;4393788;28;659666;-70
2023/09/25 04:03:55;;;;;;;15.10;9.60;;;14.50;99.90;;;;;;4403773;28;659834;-70
2023/09/25 04:06:42;;;;;;;14.10;9.30;;;14.50;99.90;;;;;;4400715;28;659965;-70
2023/09/25 04:09:31;;;;;;;15.70;10.63;;;14.50;99.90;;;;;;4409145;28;660171;-70
2023/09/25 04:12:19;;;;;;;17.33;9.90;;;14.50;99.90;;;;;;4385886;28;661147;-70
2023/09/25 04:15:08;;;;;;;25.13;10.73;;;14.50;99.90;;;;;;4404759;28;660134;-70
2023/09/25 04:17:57;;;;;;;17.13;10.33;;;14.50;99.90;;;;;;4377547;28;661019;-70
2023/09/25 04:20:44;;;;;;;16.63;10.23;;;14.50;99.90;;;;;;4375389;28;661806;-70
2023/09/25 04:23:31;;;;;;;19.63;10.90;;;14.50;99.90;;;;;;4407365;28;661327;-70
2023/09/25 04:26:21;;;;;;;16.77;11.10;;;14.50;99.90;;;;;;4388722;28;661089;-70
2023/09/25 04:29:14;;;;;;;21.03;11.30;;;14.50;99.90;;;;;;4385792;28;660392;-70
2023/09/25 04:32:03;;;;;;;17.80;11.03;;;14.50;99.90;;;;;;4381227;28;660636;-70
2023/09/25 04:34:50;;;;;;;18.57;11.63;;;14.50;99.90;;;;;;4381539;28;661231;-70
2023/09/25 04:37:38;;;;;;;20.73;11.10;;;14.60;99.90;;;;;;4387417;28;662162;-70
2023/09/25 04:40:30;;;;;;;17.10;11.03;;;14.50;99.90;;;;;;4414157;28;662745;-70
2023/09/25 04:43:19;;;;;;;18.17;11.43;;;14.50;99.90;;;;;;4371040;28;661040;-70
2023/09/25 04:46:06;;;;;;;18.43;11.40;;;14.50;99.90;;;;;;4403654;28;661032;-70
2023/09/25 04:48:54;;;;;;;17.77;12.40;;;14.50;99.90;;;;;;4383894;28;660949;-70
2023/09/25 04:51:41;;;;;;;17.67;12.17;;;14.50;99.90;;;;;;4404220;28;661249;-70
2023/09/25 04:54:28;;;;;;;14.63;11.57;;;14.50;99.90;;;;;;4387535;28;661053;-70
2023/09/25 04:57:15;;;;;;;16.47;12.10;;;14.50;99.90;;;;;;4403266;28;661646;-70
2023/09/25 05:00:21;;;;;;;18.77;12.30;;;14.50;99.90;;;;;;4382840;28;661508;-70
2023/09/25 05:03:08;;;;;;;18.33;12.67;;;14.60;99.90;;;;;;4365120;28;661425;-70
2023/09/25 05:05:56;;;;;;;21.90;12.80;;;14.60;99.90;;;;;;4407099;28;661578;-70
2023/09/25 05:08:43;;;;;;;16.30;11.77;;;14.70;99.90;;;;;;4385514;28;660531;-70
2023/09/25 05:11:31;;;;;;;17.73;11.33;;;14.70;99.90;;;;;;4408832;28;661249;-70
2023/09/25 05:14:18;;;;;;;18.40;12.00;;;14.70;99.90;;;;;;4390646;28;661064;-70
2023/09/25 05:17:07;;;;;;;19.80;12.40;;;14.70;99.90;;;;;;4413421;28;662001;-70
2023/09/25 05:19:54;;;;;;;15.73;12.00;;;14.70;99.90;;;;;;4380925;28;661378;-70
2023/09/25 05:22:43;;;;;;;18.03;12.93;;;14.80;99.90;;;;;;4406247;28;661343;-70
2023/09/25 05:25:30;;;;;;;21.97;13.40;;;14.70;99.90;;;;;;4386554;28;660944;-71
2023/09/25 05:28:17;;;;;;;18.02;12.77;;;14.70;99.90;;;;;;4388240;28;661417;-70
2023/09/25 05:31:05;;;;;;;20.70;13.03;;;14.70;99.90;;;;;;4400307;28;661510;-71
2023/09/25 05:33:53;;;;;;;22.17;13.73;;;14.70;99.90;;;;;;4402183;28;661122;-70
2023/09/25 05:36:40;;;;;;;20.87;13.37;;;14.80;99.90;;;;;;4385166;28;661311;-70
2023/09/25 05:39:28;;;;;;;18.23;13.23;;;14.80;99.90;;;;;;4386048;28;661056;-70
2023/09/25 05:42:15;;;;;;;19.07;13.93;;;14.80;99.90;;;;;;4407677;28;661446;-70
2023/09/25 05:45:02;;;;;;;25.27;14.77;;;14.80;99.90;;;;;;4388863;28;660896;-70
2023/09/25 05:47:50;;;;;;;19.43;13.93;;;14.80;99.90;;;;;;4409230;28;660493;-70
2023/09/25 05:50:39;;;;;;;20.77;14.50;;;14.80;99.90;;;;;;4408357;28;661951;-70
2023/09/25 05:53:27;;;;;;;22.27;14.47;;;14.90;99.90;;;;;;4386886;28;660995;-70
2023/09/25 05:56:14;;;;;;;20.73;13.90;;;14.90;99.90;;;;;;4388193;28;661367;-69
2023/09/25 05:59:02;;;;;;;21.33;14.93;;;14.90;99.90;;;;;;4404954;28;660725;-69
2023/09/25 06:01:49;;;;;;;26.17;14.90;;;14.90;99.90;;;;;;4380426;28;661818;-69
2023/09/25 06:04:36;;;;;;;24.63;15.27;;;14.90;99.90;;;;;;4415049;28;660690;-70
2023/09/25 06:07:25;;;;;;;23.43;14.90;;;14.90;99.90;;;;;;4385729;28;660614;-69
2023/09/25 06:10:13;;;;;;;24.67;14.93;;;14.90;99.90;;;;;;4394548;28;661197;-69
2023/09/25 06:13:01;;;;;;;21.60;14.97;;;14.90;99.90;;;;;;4398657;28;661558;-69
2023/09/25 06:15:49;;;;;;;24.40;15.00;;;15.00;99.90;;;;;;4382642;28;660756;-69
2023/09/25 06:18:36;;;;;;;26.83;15.10;;;15.00;99.90;;;;;;4403585;28;661344;-70
2023/09/25 06:21:23;;;;;;;22.30;15.33;;;15.10;99.90;;;;;;4385771;28;660539;-69
2023/09/25 06:24:12;;;;;;;23.73;14.67;;;15.10;99.90;;;;;;4402728;28;661058;-69
2023/09/25 06:26:59;;;;;;;22.37;14.67;;;15.20;99.90;;;;;;4383114;28;661611;-70
2023/09/25 06:29:47;;;;;;;22.00;14.77;;;15.20;99.90;;;;;;4402975;28;660573;-69
2023/09/25 06:32:34;;;;;;;22.57;15.23;;;15.30;99.90;;;;;;4386108;28;662383;-69
2023/09/25 06:35:21;;;;;;;20.17;14.43;;;15.30;99.90;;;;;;4401673;28;660163;-70
2023/09/25 06:38:09;;;;;;;21.73;13.40;;;15.30;99.90;;;;;;4380150;28;660363;-69
2023/09/25 06:40:57;;;;;;;22.37;13.43;;;15.30;99.90;;;;;;4400181;28;661196;-69
2023/09/25 06:43:45;;;;;;;19.83;13.30;;;15.30;99.90;;;;;;4380234;28;662168;-69
2023/09/25 06:46:33;;;;;;;18.52;12.60;;;15.30;99.90;;;;;;4391008;28;660327;-69
2023/09/25 06:49:22;;;;;;;22.77;12.97;;;15.30;99.90;;;;;;4412960;28;661004;-69
2023/09/25 06:52:09;;;;;;;20.53;12.27;;;15.30;99.90;;;;;;4378707;28;661134;-69
2023/09/25 06:54:57;;;;;;;15.83;10.90;;;15.40;99.90;;;;;;4403508;28;660675;-69
2023/09/25 06:57:45;;;;;;;16.37;10.73;;;15.40;99.90;;;;;;4364039;28;661518;-69
2023/09/25 07:00:33;;;;;;;17.33;11.30;;;15.50;99.90;;;;;;4384817;28;661060;-69
2023/09/25 07:03:20;;;;;;;18.60;10.70;;;15.50;99.90;;;;;;4401184;28;662547;-69
2023/09/25 07:06:08;;;;;;;14.83;10.00;;;15.60;99.90;;;;;;4389785;28;660582;-69
2023/09/25 07:08:57;;;;;;;15.93;10.23;;;15.70;99.90;;;;;;4401901;28;661931;-69
2023/09/25 07:11:44;;;;;;;16.27;10.33;;;15.80;99.90;;;;;;4376272;28;661052;-69
2023/09/25 07:14:32;;;;;;;18.40;10.20;;;15.90;99.90;;;;;;4403202;28;661309;-69
2023/09/25 07:17:19;;;;;;;15.60;10.07;;;16.00;99.90;;;;;;4386214;28;661851;-69
2023/09/25 07:20:08;;;;;;;14.77;9.27;;;16.10;99.90;;;;;;4408864;28;660794;-69
2023/09/25 07:22:55;;;;;;;15.07;9.53;;;16.10;99.90;;;;;;4378232;28;659999;-69
2023/09/25 07:25:42;;;;;;;15.70;9.77;;;16.20;99.90;;;;;;4389420;28;660163;-69
2023/09/25 07:28:30;;;;;;;13.43;8.77;;;16.20;99.90;;;;;;4410508;28;660017;-69
2023/09/25 07:31:22;;;;;;;13.17;8.87;;;16.20;99.90;;;;;;4398087;28;659511;-69
2023/09/25 07:34:10;;;;;;;13.67;8.40;;;16.30;99.90;;;;;;4358367;28;661287;-69
2023/09/25 07:36:57;;;;;;;12.23;8.10;;;16.30;99.90;;;;;;4405089;28;660470;-69
2023/09/25 07:39:45;;;;;;;13.57;8.23;;;16.30;99.90;;;;;;4409489;28;661178;-69
2023/09/25 07:42:32;;;;;;;11.37;8.03;;;16.30;99.90;;;;;;4402192;28;659369;-69
2023/09/25 07:45:22;;;;;;;11.00;7.67;;;16.40;99.90;;;;;;4382314;28;660330;-69
2023/09/25 07:48:11;;;;;;;10.67;7.40;;;16.40;99.90;;;;;;4381908;28;662345;-69
2023/09/25 07:50:59;;;;;;;11.00;7.20;;;16.40;99.90;;;;;;4378568;28;659853;-69
2023/09/25 07:53:46;;;;;;;13.43;6.80;;;16.40;99.90;;;;;;4399077;28;660069;-69
2023/09/25 07:56:33;;;;;;;10.17;6.90;;;16.40;99.90;;;;;;4379927;28;659356;-71
2023/09/25 07:59:25;;;;;;;12.17;7.17;;;16.40;99.90;;;;;;4402334;28;660374;-70
2023/09/25 08:02:16;;;;;;;10.03;6.73;;;16.50;99.90;;;;;;4357601;28;659578;-70
2023/09/25 08:05:07;;;;;;;9.30;6.80;;;16.60;99.90;;;;;;4380095;28;660122;-70
2023/09/25 08:07:54;;;;;;;9.57;6.47;;;16.60;99.90;;;;;;4389666;28;658522;-70
2023/09/25 08:10:41;;;;;;;10.00;6.60;;;16.70;99.90;;;;;;4405083;28;658757;-70
2023/09/25 08:13:29;;;;;;;9.53;6.10;;;16.70;99.90;;;;;;4377179;28;660138;-70
2023/09/25 08:16:18;;;;;;;10.17;6.60;;;16.80;99.90;;;;;;4397364;28;659645;-70
2023/09/25 08:19:05;;;;;;;10.43;6.27;;;16.70;99.90;;;;;;4374441;28;659965;-69
2023/09/25 08:21:54;;;;;;;10.00;6.70;;;16.70;99.90;;;;;;4388552;28;660530;-70
2023/09/25 08:24:41;;;;;;;11.20;7.00;;;16.80;99.90;;;;;;4409830;28;659929;-70
2023/09/25 08:27:29;;;;;;;10.50;6.77;;;16.80;99.90;;;;;;4387113;28;660290;-68
2023/09/25 08:30:18;;;;;;;10.70;7.13;;;16.80;99.90;;;;;;4401450;28;660173;-68
2023/09/25 08:33:05;;;;;;;12.27;7.33;;;16.70;99.90;;;;;;4372599;28;661678;-68
2023/09/25 08:35:53;;;;;;;10.13;7.00;;;16.60;99.90;;;;;;4380806;28;660118;-68
2023/09/25 08:38:41;;;;;;;14.27;7.10;;;16.80;99.90;;;;;;4402714;28;660502;-68
2023/09/25 08:41:29;;;;;;;9.80;6.80;;;16.90;99.90;;;;;;4390633;28;659836;-68
2023/09/25 08:44:16;;;;;;;10.53;7.30;;;17.00;99.90;;;;;;4402577;28;659496;-68
2023/09/25 08:47:03;;;;;;;10.73;6.97;;;17.10;99.90;;;;;;4355912;28;659807;-69
2023/09/25 08:49:50;;;;;;;9.17;6.83;;;17.10;99.90;;;;;;4277702;28;659696;-69
2023/09/25 08:52:38;;;;;;;8.27;6.33;;;17.20;99.90;;;;;;4270140;28;658915;-69
2023/09/25 08:55:26;;;;;;;9.40;6.73;;;17.20;99.90;;;;;;4323661;28;657942;-69
2023/09/25 08:58:14;;;;;;;10.33;6.57;;;17.30;99.90;;;;;;4376128;28;658266;-68
2023/09/25 09:01:01;;;;;;;8.83;6.67;;;17.30;99.90;;;;;;4399542;28;659806;-68
2023/09/25 09:03:48;;;;;;;9.40;6.30;;;17.40;99.90;;;;;;4384227;28;658466;-68
2023/09/25 09:06:35;;;;;;;14.97;7.50;;;17.50;99.90;;;;;;4399609;28;659302;-67
2023/09/25 09:09:23;;;;;;;13.70;7.80;;;17.40;99.90;;;;;;4383908;28;660305;-68
2023/09/25 09:12:12;;;;;;;13.57;7.97;;;17.40;99.90;;;;;;4401323;28;660889;-68
2023/09/25 09:15:00;;;;;;;12.03;6.90;;;17.50;99.90;;;;;;4376027;28;660300;-68
2023/09/25 09:17:47;;;;;;;11.17;7.43;;;17.60;99.90;;;;;;4398975;28;659697;-68
2023/09/25 09:20:35;;;;;;;9.57;7.10;;;17.70;99.90;;;;;;4407580;28;660097;-69
2023/09/25 09:23:38;;;;;;;12.63;7.20;;;17.70;99.90;;;;;;4382704;28;658597;-68
2023/09/25 09:26:26;;;;;;;11.27;7.73;;;17.80;99.90;;;;;;4379821;28;659721;-68
2023/09/25 09:29:15;;;;;;;10.00;7.50;;;17.90;99.90;;;;;;4383638;28;660008;-68
2023/09/25 09:32:03;;;;;;;10.33;7.20;;;17.90;99.90;;;;;;4401416;28;659891;-68
2023/09/25 09:34:50;;;;;;;13.17;7.07;;;17.90;99.90;;;;;;4399073;28;660124;-68
2023/09/25 09:37:38;;;;;;;9.50;7.13;;;17.90;99.90;;;;;;4389758;28;660123;-68
2023/09/25 09:40:26;;;;;;;11.93;7.63;;;17.60;99.90;;;;;;4406287;28;659271;-68
2023/09/25 09:43:14;;;;;;;12.53;7.47;;;17.80;99.90;;;;;;4377041;28;659607;-68
2023/09/25 09:46:03;;;;;;;9.33;7.10;;;17.80;99.90;;;;;;4408475;28;660046;-68
2023/09/25 09:48:50;;;;;;;12.53;7.70;;;17.80;99.90;;;;;;4382892;28;659853;-68
2023/09/25 09:51:39;;;;;;;10.87;7.00;;;17.80;99.90;;;;;;4385698;28;659907;-68
2023/09/25 09:54:26;;;;;;;9.87;6.43;;;18.10;99.90;;;;;;4409683;28;659285;-68
2023/09/25 09:57:13;;;;;;;13.07;6.17;;;18.20;99.90;;;;;;4387057;28;659083;-68
2023/09/25 10:00:01;;;;;;;7.63;6.17;;;18.30;99.90;;;;;;4401332;28;659982;-68
2023/09/25 10:02:49;;;;;;;10.67;6.20;;;18.60;99.90;;;;;;4389298;28;659104;-68
2023/09/25 10:05:44;;;;;;;11.57;6.10;;;18.90;99.90;;;;;;4413364;28;659963;-68
2023/09/25 10:08:31;;;;;;;16.23;6.43;;;19.20;99.90;;;;;;4386751;28;660421;-68
2023/09/25 10:11:23;;;;;;;15.30;6.13;;;19.50;99.90;;;;;;4384949;28;659646;-67
2023/09/25 10:14:10;;;;;;;9.20;5.90;;;19.60;99.90;;;;;;4388020;28;659710;-68
2023/09/25 10:17:01;;;;;;;7.60;5.88;;;19.40;99.90;;;;;;4383877;28;658726;-68
2023/09/25 10:19:53;;;;;;;8.63;5.80;;;19.40;99.90;;;;;;4380131;28;659233;-68
2023/09/25 10:22:41;;;;;;;13.53;5.80;;;19.40;99.90;;;;;;4381337;28;659856;-68
2023/09/25 10:25:30;;;;;;;9.23;6.17;;;19.40;99.90;;;;;;4387409;28;660548;-67
2023/09/25 10:28:18;;;;;;;14.87;6.20;;;19.30;99.90;;;;;;4404474;28;659076;-68
2023/09/25 10:31:06;;;;;;;9.17;5.90;;;19.20;99.90;;;;;;4373397;28;660291;-68
2023/09/25 10:33:57;;;;;;;11.30;6.40;;;19.00;99.90;;;;;;4380771;28;658891;-68
2023/09/25 10:36:47;;;;;;;11.80;6.50;;;18.90;99.90;;;;;;4380223;28;660956;-68
2023/09/25 10:39:35;;;;;;;12.30;6.83;;;18.70;99.90;;;;;;4378808;28;660813;-67
2023/09/25 10:42:22;;;;;;;10.80;6.43;;;18.70;99.90;;;;;;4386812;28;659696;-67
2023/09/25 10:45:12;;;;;;;9.03;6.47;;;18.60;99.90;;;;;;4406454;28;660327;-67
2023/09/25 10:47:59;;;;;;;10.10;6.57;;;18.50;99.90;;;;;;4385788;28;659845;-67
2023/09/25 10:50:47;;;;;;;9.37;6.77;;;18.60;99.90;;;;;;4399090;28;659103;-68
2023/09/25 10:53:37;;;;;;;10.57;6.43;;;18.70;99.90;;;;;;4386410;28;660072;-67
2023/09/25 10:56:24;;;;;;;13.07;6.93;;;18.60;99.90;;;;;;4376124;28;659573;-68
2023/09/25 10:59:11;;;;;;;10.17;6.47;;;18.60;99.90;;;;;;4395359;28;659861;-68
2023/09/25 11:01:58;;;;;;;10.67;7.20;;;18.50;99.90;;;;;;4388882;28;659318;-68
2023/09/25 11:04:45;;;;;;;11.20;7.07;;;18.60;99.90;;;;;;4411361;28;660846;-67
2023/09/25 11:07:33;;;;;;;10.60;7.00;;;18.40;99.90;;;;;;4382612;28;659997;-67
2023/09/25 11:10:21;;;;;;;12.30;7.30;;;18.40;99.90;;;;;;4413734;28;660646;-67
2023/09/25 11:13:09;;;;;;;14.33;7.43;;;18.30;99.90;;;;;;4385243;28;659526;-68
2023/09/25 11:15:56;;;;;;;10.90;6.87;;;18.30;99.90;;;;;;4408262;28;660466;-68
2023/09/25 11:18:43;;;;;;;11.63;7.60;;;18.30;99.90;;;;;;4384097;28;659747;-68
2023/09/25 11:21:31;;;;;;;8.60;6.60;;;18.40;99.90;;;;;;4404834;28;660549;-68
2023/09/25 11:24:18;;;;;;;11.17;6.83;;;18.50;99.90;;;;;;4386639;28;658527;-67
2023/09/25 11:27:09;;;;;;;9.67;6.80;;;18.60;99.90;;;;;;4397547;28;659435;-67
2023/09/25 11:29:56;;;;;;;9.45;6.80;;;18.70;99.90;;;;;;4375493;28;658632;-68
2023/09/25 11:32:44;;;;;;;10.80;6.83;;;18.60;99.90;;;;;;4378692;28;658415;-68
2023/09/25 11:35:34;;;;;;;13.77;7.33;;;18.60;99.90;;;;;;4405151;28;660694;-67
2023/09/25 11:38:23;;;;;;;10.90;7.77;;;18.60;99.90;;;;;;4380252;28;659505;-67
2023/09/25 11:41:10;;;;;;;12.60;7.60;;;18.40;99.90;;;;;;4384977;28;660689;-67
2023/09/25 11:44:01;;;;;;;13.23;7.23;;;18.40;99.90;;;;;;4374803;28;659710;-68
2023/09/25 11:46:49;;;;;;;9.90;7.07;;;18.60;99.90;;;;;;4381120;28;660256;-68
2023/09/25 11:49:36;;;;;;;11.30;6.93;;;18.70;99.90;;;;;;4405039;28;659883;-67
2023/09/25 11:52:23;;;;;;;8.60;6.73;;;18.60;99.90;;;;;;4385241;28;659847;-68
2023/09/25 11:55:11;;;;;;;9.13;6.60;;;18.70;99.90;;;;;;4408081;28;659640;-68
2023/09/25 11:57:59;;;;;;;10.70;6.83;;;18.80;99.90;;;;;;4387423;28;659368;-68
2023/09/25 12:00:48;;;;;;;11.43;6.97;;;18.70;99.90;;;;;;4403170;28;659854;-68
2023/09/25 12:03:38;;;;;;;10.67;6.60;;;18.60;99.90;;;;;;4380979;28;660088;-67
2023/09/25 12:06:25;;;;;;;10.30;7.17;;;18.50;99.90;;;;;;4378595;28;660831;-67
2023/09/25 12:09:13;;;;;;;15.23;7.23;;;18.50;99.90;;;;;;4383077;28;659902;-67
2023/09/25 12:12:00;;;;;;;9.50;7.33;;;18.50;99.90;;;;;;4403711;28;660303;-67
2023/09/25 12:14:48;;;;;;;10.87;6.50;;;18.60;99.90;;;;;;4389123;28;658918;-67
2023/09/25 12:17:37;;;;;;;10.90;6.27;;;18.60;99.90;;;;;;4396505;28;660707;-68
2023/09/25 12:20:24;;;;;;;10.40;6.73;;;18.70;99.90;;;;;;4372328;28;660598;-67
2023/09/25 12:23:12;;;;;;;8.38;5.88;;;18.80;99.90;;;;;;4398976;28;659887;-67
2023/09/25 12:25:59;;;;;;;11.57;6.67;;;18.80;99.90;;;;;;4379637;28;659360;-67
2023/09/25 12:28:46;;;;;;;11.87;6.60;;;18.60;99.90;;;;;;4396522;28;660190;-67
2023/09/25 12:31:34;;;;;;;13.90;6.77;;;18.60;99.90;;;;;;4380438;28;660650;-67
2023/09/25 12:34:22;;;;;;;11.70;6.67;;;18.60;99.90;;;;;;4397717;28;659950;-67
2023/09/25 12:37:11;;;;;;;11.27;6.77;;;18.40;99.90;;;;;;4372456;28;660551;-68
2023/09/25 12:39:59;;;;;;;12.03;7.17;;;18.30;99.90;;;;;;4374819;28;659511;-67
2023/09/25 12:42:46;;;;;;;11.83;7.20;;;18.30;99.90;;;;;;4395626;28;659342;-67
2023/09/25 12:45:33;;;;;;;10.60;7.53;;;18.20;99.90;;;;;;4384508;28;661069;-67
2023/09/25 12:48:23;;;;;;;11.83;7.37;;;18.30;99.90;;;;;;4399581;28;660430;-68
2023/09/25 12:51:12;;;;;;;11.23;7.17;;;18.40;99.90;;;;;;4375820;28;661046;-67
2023/09/25 12:53:59;;;;;;;13.70;7.33;;;18.60;99.90;;;;;;4378031;28;660149;-67
2023/09/25 12:56:47;;;;;;;12.63;7.27;;;18.70;99.90;;;;;;4402059;28;659938;-67
2023/09/25 12:59:34;;;;;;;10.87;6.73;;;18.80;99.90;;;;;;4384515;28;660072;-68
2023/09/25 13:02:21;;;;;;;13.00;7.10;;;18.80;99.90;;;;;;4401337;28;659814;-67
2023/09/25 13:05:10;;;;;;;10.50;7.03;;;18.90;99.90;;;;;;4382888;28;659266;-67
2023/09/25 13:07:59;;;;;;;11.57;6.70;;;18.90;99.90;;;;;;4395141;28;659601;-67
2023/09/25 13:10:48;;;;;;;9.23;6.73;;;18.90;99.90;;;;;;4410677;28;660232;-67
2023/09/25 13:13:35;;;;;;;12.50;7.43;;;18.90;99.90;;;;;;4382628;28;658877;-68
2023/09/25 13:16:22;;;;;;;13.10;7.67;;;19.00;99.90;;;;;;4396174;28;660924;-68
2023/09/25 13:19:10;;;;;;;11.93;6.80;;;19.00;99.90;;;;;;4398752;28;661525;-68
2023/09/25 13:21:57;;;;;;;15.37;7.67;;;19.10;99.90;;;;;;4404280;28;660181;-68
2023/09/25 13:24:46;;;;;;;12.00;7.47;;;19.10;99.90;;;;;;4410666;28;660891;-68
2023/09/25 13:27:33;;;;;;;13.50;7.83;;;19.10;99.90;;;;;;4383216;28;660561;-68
2023/09/25 13:30:21;;;;;;;11.67;7.50;;;19.00;99.90;;;;;;4406744;28;661606;-68
2023/09/25 13:33:08;;;;;;;16.23;8.57;;;19.00;99.90;;;;;;4383449;28;659615;-68
2023/09/25 13:35:55;;;;;;;17.60;8.87;;;19.00;99.90;;;;;;4410838;28;660628;-68
2023/09/25 13:38:43;;;;;;;15.63;8.33;;;19.00;99.90;;;;;;4381352;28;660024;-68
2023/09/25 13:41:31;;;;;;;17.30;9.47;;;19.00;99.90;;;;;;4404902;28;660630;-68
2023/09/25 13:44:18;;;;;;;15.20;8.43;;;18.90;99.90;;;;;;4377061;28;660581;-68
2023/09/25 13:47:06;;;;;;;14.30;8.80;;;18.90;99.90;;;;;;4409026;28;660626;-67
2023/09/25 13:49:53;;;;;;;13.30;8.00;;;18.90;99.90;;;;;;4383024;28;659840;-67
2023/09/25 13:52:41;;;;;;;19.57;8.80;;;18.80;99.90;;;;;;4402107;28;659616;-67
2023/09/25 13:55:28;;;;;;;14.60;8.10;;;18.80;99.90;;;;;;4387554;28;660395;-67
2023/09/25 13:58:17;;;;;;;13.43;8.20;;;18.80;99.90;;;;;;4408475;28;660763;-67
2023/09/25 14:01:05;;;;;;;13.53;7.80;;;18.80;99.90;;;;;;4387495;28;660145;-67
2023/09/25 14:03:52;;;;;;;12.17;7.70;;;18.80;99.90;;;;;;4389462;28;659617;-68
2023/09/25 14:06:40;;;;;;;18.63;8.20;;;18.80;99.90;;;;;;4409445;28;660477;-68
2023/09/25 14:09:28;;;;;;;16.87;8.43;;;18.80;99.90;;;;;;4402419;28;659977;-68
2023/09/25 14:12:15;;;;;;;11.83;8.03;;;18.80;99.90;;;;;;4411031;28;660924;-68